DW3725 Oslo NO current weather conditions

sailwx.info

Wind from 316 at 4 knots gusting 11

Air temperature 1.7° C
Dewpoint -2.1° C

Last reported at 2018-Dec-10 03:25 UTC.
Time now 2018-Dec-10 04:07 UTC

Location: N 60°15' E 011°13'.
View on Google Maps.

See reports from other nearby stations

  
Tides and Currents Weather Stations Pressure Air Temp Water Temp Dewpoint Dewpoint Depression Visibility Wind Speed Wind Dir Waves Ship Positions
date/time (UTC)wind fromknots sea level pressurealtimeterstation pressurevisibilityair tempwater tempwave heightnotes
2018-Dec-10 03:25 316 4 gusting 11 1.7
2018-Dec-10 03:20 323 2 gusting 8 1.1
2018-Dec-10 03:15 299 3 gusting 10 1.1
2018-Dec-10 03:10 311 4 gusting 10 1.1
2018-Dec-10 02:55 316 5 gusting 10 1.7
2018-Dec-10 02:50 306 7 gusting 12 1.7
2018-Dec-10 02:40 309 6 gusting 13 1.1
2018-Dec-10 02:25 311 5 gusting 11 1.1
2018-Dec-10 02:20 339 2 gusting 10 1.1
2018-Dec-10 02:15 325 6 gusting 11 1.1
2018-Dec-10 02:10 307 5 gusting 10 1.1
2018-Dec-10 02:05 320 6 gusting 14 1.1
2018-Dec-10 02:00 323 4 gusting 8 1.1
2018-Dec-10 01:50 312 5 gusting 14 1.1
2018-Dec-10 01:35 301 2 gusting 7 0.6
2018-Dec-10 01:30 311 1 gusting 4 0.6
2018-Dec-10 01:20 330 3 gusting 7 0.6
2018-Dec-10 01:10 314 1 gusting 4 1.1
2018-Dec-10 01:00 307 4 gusting 10 1.1
2018-Dec-10 00:55 317 5 gusting 13 1.1
2018-Dec-10 00:50 315 6 gusting 12 0.6
2018-Dec-10 00:45 299 4 gusting 8 0.6
2018-Dec-10 00:40 297 3 gusting 8 0.6
2018-Dec-10 00:35 310 5 gusting 11 0.6
2018-Dec-10 00:30 321 3 gusting 8 0.6
2018-Dec-10 00:25 306 2 gusting 6 0.6
2018-Dec-10 00:20 325 4 gusting 10 0.6
2018-Dec-10 00:15 329 3 gusting 7 0.6
2018-Dec-10 00:00 332 4 gusting 10 -0.0
2018-Dec-09 23:55 313 4 gusting 7 -0.0
2018-Dec-09 23:40 319 6 gusting 10 -0.0
2018-Dec-09 23:35 328 4 gusting 10 -0.0
2018-Dec-09 23:30 317 2 gusting 10 -0.6
2018-Dec-09 23:20 315 4 gusting 11 -0.6
2018-Dec-09 23:05 313 1 gusting 6 -1.7
2018-Dec-09 22:55 332 0 gusting 6 -3.3
2018-Dec-09 22:50 148 -3.9
2018-Dec-09 22:45 148 0 gusting 1 -3.9
2018-Dec-09 22:35 042 0 gusting 4 -3.9
2018-Dec-09 22:30 164 0 gusting 2 -4.4
2018-Dec-09 22:25 154 -4.4
2018-Dec-09 22:20 154 -4.4
2018-Dec-09 22:15 154 -4.4
2018-Dec-09 22:10 154 0 gusting 2 -4.4
2018-Dec-09 22:05 194 0 gusting 2 -4.4
2018-Dec-09 22:00 158 0 gusting 1 -4.4
2018-Dec-09 21:55 157 -4.4
2018-Dec-09 21:50 157 0 gusting 1 -4.4
2018-Dec-09 21:45 175 -4.4
2018-Dec-09 21:35 192 -3.9
2018-Dec-09 21:30 167 -3.9
2018-Dec-09 21:25 167 -3.9
2018-Dec-09 21:20 173 0 gusting 2 -3.9
2018-Dec-09 21:15 232 0 gusting 1 -3.9
2018-Dec-09 21:10 167 -3.9
2018-Dec-09 21:05 167 0 gusting 2 -4.4
2018-Dec-09 21:00 273 -4.4
2018-Dec-09 20:55 277 -4.4
2018-Dec-09 20:50 277 -3.9
2018-Dec-09 20:45 292 0 gusting 1 -3.9
2018-Dec-09 20:40 049 -3.9
2018-Dec-09 20:35 049 -3.9
2018-Dec-09 20:30 049 -3.9
2018-Dec-09 20:25 049 -3.9
2018-Dec-09 20:20 049 -3.3
2018-Dec-09 20:15 049 -3.3
2018-Dec-09 20:10 256 -3.3
2018-Dec-09 20:05 193 -2.8
2018-Dec-09 20:00 193 -2.8
2018-Dec-09 19:55 193 0 gusting 2 -2.8
2018-Dec-09 19:45 144 0 gusting 2 -2.8
2018-Dec-09 19:30 194 1 gusting 4 -2.8
2018-Dec-09 19:25 172 0 gusting 2 -2.8
2018-Dec-09 19:20 159 -2.8
2018-Dec-09 19:10 189 0 gusting 2 -2.8
2018-Dec-09 19:00 157 0 gusting 2 -2.8
2018-Dec-09 18:55 152 1 gusting 2 -2.8
2018-Dec-09 18:50 147 -2.8
2018-Dec-09 18:40 182 0 gusting 2 -2.8
2018-Dec-09 18:35 161 0 gusting 2 -2.8
2018-Dec-09 18:30 222 0 gusting 2 -3.3
2018-Dec-09 18:20 188 0 gusting 1 -2.8
2018-Dec-09 18:15 171 0 gusting 2 -2.8
2018-Dec-09 18:10 173 0 gusting 1 -2.8
2018-Dec-09 18:05 172 -2.8
2018-Dec-09 18:00 172 0 gusting 2 -2.8
2018-Dec-09 17:55 159 0 gusting 4 -2.8
2018-Dec-09 17:50 165 0 gusting 2 -3.3
2018-Dec-09 17:45 148 -3.3
2018-Dec-09 17:35 159 0 gusting 1 -3.3
2018-Dec-09 17:25 165 0 gusting 1 -3.3
2018-Dec-09 17:20 164 -3.3
2018-Dec-09 17:15 164 -3.3
2018-Dec-09 17:10 164 0 gusting 1 -3.3
2018-Dec-09 17:00 169 -3.3
2018-Dec-09 16:55 169 0 gusting 1 -3.3
2018-Dec-09 16:50 165 0 gusting 1 -3.3
2018-Dec-09 16:30 185 0 gusting 2 -3.9
2018-Dec-09 16:20 177 -3.9
2018-Dec-09 16:10 177 -3.3
2018-Dec-09 16:00 177 -3.3
2018-Dec-09 15:50 177 -3.3
2018-Dec-09 15:45 177 0 gusting 0 -3.3
2018-Dec-09 15:40 177 -3.3
2018-Dec-09 15:30 177 0 gusting 1 -3.3
2018-Dec-09 15:25 178 0 gusting 1 -3.3
2018-Dec-09 15:20 178 -2.8
2018-Dec-09 14:50 178 -2.8
2018-Dec-09 14:45 178 -2.2
2018-Dec-09 14:35 178 -2.2
2018-Dec-09 14:20 274 -1.7
2018-Dec-09 14:15 274 -1.7
2018-Dec-09 14:10 274 -1.7
2018-Dec-09 14:05 274 -1.7
2018-Dec-09 13:55 274 -1.7
2018-Dec-09 13:50 274 -1.1
2018-Dec-09 13:45 274 -1.1
2018-Dec-09 13:40 274 -1.1
2018-Dec-09 13:35 274 -1.1
2018-Dec-09 13:30 274 -1.1
2018-Dec-09 13:25 274 -1.1
2018-Dec-09 13:20 274 -1.1
2018-Dec-09 13:15 274 -1.1
2018-Dec-09 13:10 274 -1.1
2018-Dec-09 12:55 274 -0.6
2018-Dec-09 12:50 274 -0.6
2018-Dec-09 12:45 274 -1.1
2018-Dec-09 12:40 274 -1.1
2018-Dec-09 12:35 274 0 gusting 1 -0.6
2018-Dec-09 12:30 275 0 gusting 2 -0.6
2018-Dec-09 12:25 346 -1.1
2018-Dec-09 12:20 346 0 gusting 1 -1.1
2018-Dec-09 12:05 346 -0.6
2018-Dec-09 12:00 346 -1.1
2018-Dec-09 11:55 346 -1.1
2018-Dec-09 11:45 346 -1.1
2018-Dec-09 11:35 346 -0.6
2018-Dec-09 11:30 346 -0.6
2018-Dec-09 11:25 346 -0.6
2018-Dec-09 11:20 346 -0.6
2018-Dec-09 11:15 006 0 gusting 4 -0.6
2018-Dec-09 11:10 324 0 gusting 1 -0.6
2018-Dec-09 11:05 324 0 gusting 1 -0.6
2018-Dec-09 10:55 322 -0.6
2018-Dec-09 10:45 322 -0.6
2018-Dec-09 10:40 322 0 gusting 1 -1.1
2018-Dec-09 10:30 322 0 gusting 2 -1.1
2018-Dec-09 10:20 354 0 gusting 2 -1.7
2018-Dec-09 10:15 330 1 gusting 4 -1.7
2018-Dec-09 10:05 355 0 gusting 2 -2.8
2018-Dec-09 10:00 344 -2.8
2018-Dec-09 09:55 339 0 gusting 2 -2.8
2018-Dec-09 09:50 353 -3.3
2018-Dec-09 09:45 355 -3.3
2018-Dec-09 09:40 355 -3.3
2018-Dec-09 09:35 355 -3.3
2018-Dec-09 09:20 355 -3.3
2018-Dec-09 09:15 355 -3.3
2018-Dec-09 09:10 355 -3.3
2018-Dec-09 09:00 355 -3.3
2018-Dec-09 08:50 355 -3.3
2018-Dec-09 08:45 355 -3.3
2018-Dec-09 08:40 355 -3.3
2018-Dec-09 08:35 355 -3.3
2018-Dec-09 08:30 355 -3.3
2018-Dec-09 08:25 355 -3.3
2018-Dec-09 08:20 355 -3.3
2018-Dec-09 08:15 350 -3.3
2018-Dec-09 08:10 020 0 gusting 2 -3.3
2018-Dec-09 08:00 015 -2.8
2018-Dec-09 07:45 005 0 gusting 1 -3.3
2018-Dec-09 07:20 005 -3.3
2018-Dec-09 07:10 005 -3.3
2018-Dec-09 07:05 351 -3.3
2018-Dec-09 07:00 323 -3.3
2018-Dec-09 06:55 323 -3.3
2018-Dec-09 06:50 323 -3.3
2018-Dec-09 06:45 323 -2.8
2018-Dec-09 06:40 323 -2.8
2018-Dec-09 06:35 323 -2.8
2018-Dec-09 06:30 323 -2.8
2018-Dec-09 06:25 019 -2.8
2018-Dec-09 06:15 019 -2.8
2018-Dec-09 06:10 019 -2.8
2018-Dec-09 06:05 019 -2.8
2018-Dec-09 06:00 019 -2.8
2018-Dec-09 05:55 019 -2.8
2018-Dec-09 05:50 019 -2.8
2018-Dec-09 05:45 019 -2.8
2018-Dec-09 05:40 019 -2.8
2018-Dec-09 05:30 019 -2.8
2018-Dec-09 05:25 019 -2.2
2018-Dec-09 05:20 019 -2.2
2018-Dec-09 05:10 019 -2.2
2018-Dec-09 05:05 019 -2.2
2018-Dec-09 05:00 019 -2.2
2018-Dec-09 04:55 019 -2.2
2018-Dec-09 04:45 019 -2.2
2018-Dec-09 04:40 019 -2.2
2018-Dec-09 04:35 019 -1.7
2018-Dec-09 04:30 019 -1.7
2018-Dec-09 04:25 019 0 gusting 2 -1.7
2018-Dec-09 04:15 019 -2.2
2018-Dec-09 04:10 019 -2.2
2018-Dec-09 04:05 019 -2.2
2018-Dec-09 03:50 019 -2.2
2018-Dec-09 03:45 019 -2.2
2018-Dec-09 03:30 019 -2.2
2018-Dec-09 03:25 019 -2.2
2018-Dec-09 03:15 019 -2.2
2018-Dec-09 03:10 019 -2.2
2018-Dec-09 03:05 019 -2.2
2018-Dec-09 03:00 019 -2.2
2018-Dec-09 02:55 019 -2.2
2018-Dec-09 02:45 019 -2.2
2018-Dec-09 02:35 019 -2.2
2018-Dec-09 02:30 019 -2.2
2018-Dec-09 02:25 019 -2.2
2018-Dec-09 02:20 019 -2.2
2018-Dec-09 02:15 019 -2.2
2018-Dec-09 02:05 019 -2.2
2018-Dec-09 02:00 019 -2.2
2018-Dec-09 01:55 019 -2.2
2018-Dec-09 01:50 019 0 gusting 0 -2.2
2018-Dec-09 01:45 019 -2.2
2018-Dec-09 01:40 019 -2.2
2018-Dec-09 01:35 019 0 gusting 1 -2.2
2018-Dec-09 01:20 019 0 gusting 1 -2.2
2018-Dec-09 01:10 019 0 gusting 1 -2.2
2018-Dec-09 01:05 019 -1.7
2018-Dec-09 01:00 019 0 gusting 2 -2.2
2018-Dec-09 00:55 019 0 gusting 2 -2.2
2018-Dec-09 00:50 019 0 gusting 2 -2.2
2018-Dec-09 00:45 019 1 gusting 2 -2.2
2018-Dec-09 00:40 019 0 gusting 1 -2.2
2018-Dec-09 00:35 019 -2.2
2018-Dec-09 00:25 019 0 gusting 1 -2.2
2018-Dec-09 00:20 019 -2.2
2018-Dec-09 00:15 019 -2.2
2018-Dec-09 00:05 019 -2.2
2018-Dec-09 00:00 019 -2.2
2018-Dec-08 23:55 019 -2.2
2018-Dec-08 23:50 019 -2.2
2018-Dec-08 23:30 019 0 gusting 1 -2.2
2018-Dec-08 23:25 019 0 gusting 1 -2.2
2018-Dec-08 23:20 019 -2.2
2018-Dec-08 23:15 019 -2.2
2018-Dec-08 23:05 019 -2.2
2018-Dec-08 23:00 019 -2.2
2018-Dec-08 22:55 019 -2.2
2018-Dec-08 22:50 019 -2.2
2018-Dec-08 22:45 019 1 gusting 2 -2.2
2018-Dec-08 22:40 019 0 gusting 2 -2.8
2018-Dec-08 22:35 019 0 gusting 1 -2.8
2018-Dec-08 22:20 019 0 gusting 1 -2.8
2018-Dec-08 22:15 019 -2.8
2018-Dec-08 22:10 019 0 gusting 1 -2.8
2018-Dec-08 22:05 019 0 gusting 1 -2.8
2018-Dec-08 22:00 019 0 gusting 2 -2.8
2018-Dec-08 21:55 019 0 gusting 2 -2.8
2018-Dec-08 21:45 019 -2.8
2018-Dec-08 21:35 019 0 gusting 1 -2.8
2018-Dec-08 21:25 019 0 gusting 1 -2.8
2018-Dec-08 21:20 019 -2.8
2018-Dec-08 21:15 019 -2.8
2018-Dec-08 21:10 019 0 gusting 1 -2.8
2018-Dec-08 21:05 019 -2.8
2018-Dec-08 21:00 019 -2.8
2018-Dec-08 20:55 019 -2.8
2018-Dec-08 20:50 019 -3.3
2018-Dec-08 20:45 019 0 gusting 1 -3.3
2018-Dec-08 20:40 015 0 gusting 2 -3.3
2018-Dec-08 20:35 163 -3.3
2018-Dec-08 20:25 163 -3.3
2018-Dec-08 20:20 163 0 gusting 1 -3.3
2018-Dec-08 19:55 163 -3.3
2018-Dec-08 19:50 163 -3.3
2018-Dec-08 19:45 163 -3.3
2018-Dec-08 19:40 163 -2.8
2018-Dec-08 19:35 163 -2.8
2018-Dec-08 19:30 163 -2.8
2018-Dec-08 19:20 163 -2.8
2018-Dec-08 19:15 163 -2.8
2018-Dec-08 19:05 163 -2.8
2018-Dec-08 19:00 163 -2.8
2018-Dec-08 18:55 163 -2.8
2018-Dec-08 18:45 163 -3.3
2018-Dec-08 18:40 163 -3.3
2018-Dec-08 18:25 163 -3.3
2018-Dec-08 18:15 163 -3.3
2018-Dec-08 18:10 163 -3.3
2018-Dec-08 18:05 163 -3.3
2018-Dec-08 17:55 163 -3.3
2018-Dec-08 17:50 163 -3.3
2018-Dec-08 17:45 163 -3.3
2018-Dec-08 17:35 163 -2.8
2018-Dec-08 17:20 163 -2.8
2018-Dec-08 17:15 163 -2.8
2018-Dec-08 17:10 163 -2.8
2018-Dec-08 17:05 163 -2.8
2018-Dec-08 16:50 163 -2.8
2018-Dec-08 16:40 163 -2.8
2018-Dec-08 16:30 163 -2.8
2018-Dec-08 16:15 163 -2.2
2018-Dec-08 16:10 163 -2.2
2018-Dec-08 16:00 163 -2.2
2018-Dec-08 15:55 163 -2.2
2018-Dec-08 15:50 163 -2.2
2018-Dec-08 15:45 163 -2.2
2018-Dec-08 15:40 163 -2.2
2018-Dec-08 15:30 163 -2.2
2018-Dec-08 15:25 163 -2.2
2018-Dec-08 15:20 163 -2.2
2018-Dec-08 15:10 163 -2.2
2018-Dec-08 15:05 163 -2.2
2018-Dec-08 15:00 163 -2.2
2018-Dec-08 14:55 163 -2.2
2018-Dec-08 14:45 163 -1.7
2018-Dec-08 14:40 163 -1.7
2018-Dec-08 14:35 163 -1.7
2018-Dec-08 14:30 163 -1.7
2018-Dec-08 14:25 163 -1.7
2018-Dec-08 14:10 163 -1.1
2018-Dec-08 14:05 163 -1.1
2018-Dec-08 13:55 163 -1.1
2018-Dec-08 13:50 163 -1.1
2018-Dec-08 13:45 163 -1.1
2018-Dec-08 13:40 163 -1.1
2018-Dec-08 13:30 163 -1.1
2018-Dec-08 13:20 163 -1.1
2018-Dec-08 13:10 163 -1.1
2018-Dec-08 13:00 164 -1.1
2018-Dec-08 12:55 164 -1.1
2018-Dec-08 12:50 165 -1.1
2018-Dec-08 12:45 165 -1.1
2018-Dec-08 12:40 165 -1.1
2018-Dec-08 12:35 165 -1.1
2018-Dec-08 12:30 165 -1.1
2018-Dec-08 12:25 165 -1.1
2018-Dec-08 12:20 165 -1.1
2018-Dec-08 12:15 165 -1.1
2018-Dec-08 12:10 165 0 gusting 1 -1.1
2018-Dec-08 12:05 165 -1.1
2018-Dec-08 12:00 165 -1.1
2018-Dec-08 11:55 165 -1.1
2018-Dec-08 11:50 165 -1.1
2018-Dec-08 11:45 165 -1.1
2018-Dec-08 11:30 164 -1.1
2018-Dec-08 11:25 163 -1.1
2018-Dec-08 11:20 172 0 gusting 2 -1.1
2018-Dec-08 11:15 229 0 gusting 1 -1.1
2018-Dec-08 11:10 229 -1.1
2018-Dec-08 11:05 229 -1.1
2018-Dec-08 10:55 229 -1.1
2018-Dec-08 10:50 229 -1.1
2018-Dec-08 10:45 229 -1.1
2018-Dec-08 10:40 229 -1.1
2018-Dec-08 10:35 229 -1.7
2018-Dec-08 10:30 229 -1.7
2018-Dec-08 10:25 229 -1.1
2018-Dec-08 10:15 229 -1.1
2018-Dec-08 10:05 227 -1.7
2018-Dec-08 10:00 211 -1.1
2018-Dec-08 09:50 011 -1.1
2018-Dec-08 09:45 011 -1.1
2018-Dec-08 09:40 011 -1.1
2018-Dec-08 09:35 011 -1.7
2018-Dec-08 09:30 011 -1.1
2018-Dec-08 09:25 011 -1.1
2018-Dec-08 09:20 011 -1.1
2018-Dec-08 09:15 011 -1.1
2018-Dec-08 09:05 011 -1.1
2018-Dec-08 09:00 011 -1.1
2018-Dec-08 08:55 011 -1.1
2018-Dec-08 08:50 011 -1.1
2018-Dec-08 08:45 011 -1.1
2018-Dec-08 08:40 011 -1.1
2018-Dec-08 08:30 011 -1.1
2018-Dec-08 08:10 011 -1.1
2018-Dec-08 07:55 011 -1.1
2018-Dec-08 07:50 011 -1.1
2018-Dec-08 07:45 011 -1.1
2018-Dec-08 07:40 011 -1.1
2018-Dec-08 07:35 011 -1.1
2018-Dec-08 07:30 011 -1.1
2018-Dec-08 07:25 011 -1.1
2018-Dec-08 07:20 011 -1.1
2018-Dec-08 07:15 011 -1.1
2018-Dec-08 07:05 019 0 gusting 1 -1.1
2018-Dec-08 07:00 019 -1.1
2018-Dec-08 06:55 017 0 gusting 2 -1.1
2018-Dec-08 06:50 017 -1.1
2018-Dec-08 06:40 019 0 gusting 1 -1.1
2018-Dec-08 06:35 019 0 gusting 2 -1.1
2018-Dec-08 06:30 011 0 gusting 2 -1.1
2018-Dec-08 06:20 013 0 gusting 4 -1.1
2018-Dec-08 06:10 348 1 gusting 5 -1.1
2018-Dec-08 06:05 025 1 gusting 4 -1.1
2018-Dec-08 06:00 020 0 gusting 2 -1.1
2018-Dec-08 05:55 017 1 gusting 4 -1.1
2018-Dec-08 05:50 034 0 gusting 2 -1.1
2018-Dec-08 05:45 005 1 gusting 2 -1.1
2018-Dec-08 05:40 030 0 gusting 2 -1.1
2018-Dec-08 05:35 018 1 gusting 2 -1.1
2018-Dec-08 05:30 018 1 gusting 6 -1.1
2018-Dec-08 05:20 004 1 gusting 4 -1.1
2018-Dec-08 05:15 008 2 gusting 6 -1.1
2018-Dec-08 05:00 020 1 gusting 4 -1.1
2018-Dec-08 04:55 013 1 gusting 5 -1.1
2018-Dec-08 04:45 017 1 gusting 4 -1.1
2018-Dec-08 04:40 033 2 gusting 5 -1.1
2018-Dec-08 04:35 018 1 gusting 2 -1.1
2018-Dec-08 04:30 022 2 gusting 5 -1.1
2018-Dec-08 04:25 028 1 gusting 6 -1.1
2018-Dec-08 04:20 016 2 gusting 6 -1.1
2018-Dec-08 04:05 021 0 gusting 4 -1.1
2018-Dec-08 04:00 022 1 gusting 7 -1.1